sensor_id;sensor_type;location;lat;lon;timestamp;pressure;altitude;pressure_sealevel;temperature;humidity
48027;BME280;50714;49.208;5.364;2024-01-10T00:01:51;100267.03;;;-0.42;48.39
48027;BME280;50714;49.208;5.364;2024-01-10T00:11:51;100268.28;;;-0.35;48.79
48027;BME280;50714;49.208;5.364;2024-01-10T00:21:51;100267.38;;;-0.47;47.70
48027;BME280;50714;49.208;5.364;2024-01-10T00:31:52;100278.16;;;-0.61;46.65
48027;BME280;50714;49.208;5.364;2024-01-10T00:41:53;100265.53;;;-0.57;47.92
48027;BME280;50714;49.208;5.364;2024-01-10T00:51:53;100260.88;;;-0.54;48.91
48027;BME280;50714;49.208;5.364;2024-01-10T01:01:54;100252.97;;;-0.66;47.31
48027;BME280;50714;49.208;5.364;2024-01-10T01:11:54;100266.69;;;-0.73;46.03
48027;BME280;50714;49.208;5.364;2024-01-10T01:21:54;100257.28;;;-0.89;45.88
48027;BME280;50714;49.208;5.364;2024-01-10T01:31:55;100274.44;;;-0.82;47.97
48027;BME280;50714;49.208;5.364;2024-01-10T01:41:55;100274.56;;;-0.84;47.72
48027;BME280;50714;49.208;5.364;2024-01-10T01:51:56;100260.03;;;-0.78;47.18
48027;BME280;50714;49.208;5.364;2024-01-10T02:01:58;100263.34;;;-0.87;47.42
48027;BME280;50714;49.208;5.364;2024-01-10T02:12:02;100258.72;;;-0.96;47.91
48027;BME280;50714;49.208;5.364;2024-01-10T02:22:03;100245.97;;;-0.91;49.08
48027;BME280;50714;49.208;5.364;2024-01-10T02:32:04;100240.41;;;-0.99;47.30
48027;BME280;50714;49.208;5.364;2024-01-10T02:42:05;100243.72;;;-0.85;48.36
48027;BME280;50714;49.208;5.364;2024-01-10T02:52:05;100227.19;;;-0.88;48.57
48027;BME280;50714;49.208;5.364;2024-01-10T03:02:05;100235.09;;;-0.99;48.73
48027;BME280;50714;49.208;5.364;2024-01-10T03:12:06;100232.56;;;-1.01;48.79
48027;BME280;50714;49.208;5.364;2024-01-10T03:22:06;100225.16;;;-1.09;49.34
48027;BME280;50714;49.208;5.364;2024-01-10T03:32:07;100215.06;;;-1.27;48.23
48027;BME280;50714;49.208;5.364;2024-01-10T03:42:07;100222.09;;;-1.15;48.41
48027;BME280;50714;49.208;5.364;2024-01-10T03:52:07;100213.03;;;-1.24;48.72
48027;BME280;50714;49.208;5.364;2024-01-10T04:02:08;100212.53;;;-1.05;49.15
48027;BME280;50714;49.208;5.364;2024-01-10T04:12:08;100209.28;;;-1.09;48.91
48027;BME280;50714;49.208;5.364;2024-01-10T04:22:09;100201.72;;;-1.26;48.40
48027;BME280;50714;49.208;5.364;2024-01-10T04:32:09;100185.22;;;-1.06;49.62
48027;BME280;50714;49.208;5.364;2024-01-10T04:42:13;100185.59;;;-1.23;48.51
48027;BME280;50714;49.208;5.364;2024-01-10T04:52:13;100175.34;;;-1.27;48.79
48027;BME280;50714;49.208;5.364;2024-01-10T05:02:13;100173.31;;;-1.24;48.90
48027;BME280;50714;49.208;5.364;2024-01-10T05:12:14;100171.34;;;-1.33;48.95
48027;BME280;50714;49.208;5.364;2024-01-10T05:22:14;100183.63;;;-1.32;49.63
48027;BME280;50714;49.208;5.364;2024-01-10T05:32:15;100185.41;;;-1.32;49.39
48027;BME280;50714;49.208;5.364;2024-01-10T05:42:15;100187.44;;;-1.12;49.89
48027;BME280;50714;49.208;5.364;2024-01-10T05:52:15;100200.69;;;-1.12;49.82
48027;BME280;50714;49.208;5.364;2024-01-10T06:02:16;100190.72;;;-1.09;49.74
48027;BME280;50714;49.208;5.364;2024-01-10T06:12:16;100185.75;;;-1.13;50.26
48027;BME280;50714;49.208;5.364;2024-01-10T06:22:17;100176.34;;;-1.17;49.89
48027;BME280;50714;49.208;5.364;2024-01-10T06:32:18;100178.09;;;-1.29;50.94
48027;BME280;50714;49.208;5.364;2024-01-10T06:42:18;100179.06;;;-1.30;50.64
48027;BME280;50714;49.208;5.364;2024-01-10T06:52:18;100192.72;;;-1.23;50.81
48027;BME280;50714;49.208;5.364;2024-01-10T07:02:19;100196.91;;;-1.45;50.81
48027;BME280;50714;49.208;5.364;2024-01-10T07:12:19;100202.19;;;-1.45;51.01
48027;BME280;50714;49.208;5.364;2024-01-10T07:22:19;100210.38;;;-1.60;50.40
48027;BME280;50714;49.208;5.364;2024-01-10T07:32:20;100214.38;;;-1.55;51.61
48027;BME280;50714;49.208;5.364;2024-01-10T07:42:20;100219.69;;;-1.55;51.74
48027;BME280;50714;49.208;5.364;2024-01-10T07:52:21;100228.09;;;-1.37;52.08
48027;BME280;50714;49.208;5.364;2024-01-10T08:02:21;100222.84;;;-1.62;51.71
48027;BME280;50714;49.208;5.364;2024-01-10T08:12:22;100233.34;;;-1.48;52.39
48027;BME280;50714;49.208;5.364;2024-01-10T08:22:22;100242.22;;;-1.49;52.16
48027;BME280;50714;49.208;5.364;2024-01-10T08:32:23;100244.09;;;-1.26;51.67
48027;BME280;50714;49.208;5.364;2024-01-10T08:42:23;100238.41;;;-1.45;51.78
48027;BME280;50714;49.208;5.364;2024-01-10T08:52:24;100237.63;;;-1.34;51.25
48027;BME280;50714;49.208;5.364;2024-01-10T09:02:24;100245.34;;;-1.31;52.17
48027;BME280;50714;49.208;5.364;2024-01-10T09:12:25;100252.59;;;-1.10;51.89
48027;BME280;50714;49.208;5.364;2024-01-10T09:22:25;100265.31;;;-1.15;52.06
48027;BME280;50714;49.208;5.364;2024-01-10T09:32:26;100258.66;;;-0.84;51.86
48027;BME280;50714;49.208;5.364;2024-01-10T09:42:26;100263.50;;;0.39;51.46
48027;BME280;50714;49.208;5.364;2024-01-10T09:52:27;100269.44;;;-0.15;51.08
48027;BME280;50714;49.208;5.364;2024-01-10T10:02:27;100275.75;;;-0.05;51.57
48027;BME280;50714;49.208;5.364;2024-01-10T10:13:01;100284.00;;;0.37;48.63
48027;BME280;50714;49.208;5.364;2024-01-10T10:23:06;100288.81;;;0.20;51.02
48027;BME280;50714;49.208;5.364;2024-01-10T10:33:08;100295.38;;;0.61;50.48
48027;BME280;50714;49.208;5.364;2024-01-10T10:43:12;100283.75;;;0.51;50.41
48027;BME280;50714;49.208;5.364;2024-01-10T10:53:14;100274.66;;;-0.03;51.23
48027;BME280;50714;49.208;5.364;2024-01-10T11:03:16;100278.56;;;0.27;50.92
48027;BME280;50714;49.208;5.364;2024-01-10T11:23:46;100252.53;;;0.65;50.28
48027;BME280;50714;49.208;5.364;2024-01-10T11:33:49;100255.66;;;0.71;50.96
48027;BME280;50714;49.208;5.364;2024-01-10T11:54:11;100265.75;;;0.10;51.19
48027;BME280;50714;49.208;5.364;2024-01-10T12:04:11;100244.78;;;0.18;51.45
48027;BME280;50714;49.208;5.364;2024-01-10T12:14:11;100248.41;;;0.39;51.74
48027;BME280;50714;49.208;5.364;2024-01-10T12:24:12;100249.84;;;0.32;51.25
48027;BME280;50714;49.208;5.364;2024-01-10T12:34:14;100253.59;;;0.29;52.27
48027;BME280;50714;49.208;5.364;2024-01-10T12:44:15;100236.47;;;0.22;52.00
48027;BME280;50714;49.208;5.364;2024-01-10T12:54:15;100237.19;;;0.47;52.04
48027;BME280;50714;49.208;5.364;2024-01-10T13:04:17;100221.25;;;0.69;51.98
48027;BME280;50714;49.208;5.364;2024-01-10T13:14:17;100242.72;;;0.77;51.21
48027;BME280;50714;49.208;5.364;2024-01-10T13:24:18;100227.50;;;0.90;52.42
48027;BME280;50714;49.208;5.364;2024-01-10T13:34:18;100229.31;;;0.90;52.03
48027;BME280;50714;49.208;5.364;2024-01-10T13:44:18;100230.38;;;0.76;52.15
48027;BME280;50714;49.208;5.364;2024-01-10T13:54:19;100222.53;;;0.75;51.97
48027;BME280;50714;49.208;5.364;2024-01-10T14:04:19;100219.03;;;0.74;52.40
48027;BME280;50714;49.208;5.364;2024-01-10T14:14:19;100230.38;;;0.76;52.65
48027;BME280;50714;49.208;5.364;2024-01-10T14:24:20;100231.59;;;0.83;52.60
48027;BME280;50714;49.208;5.364;2024-01-10T14:34:20;100240.19;;;0.76;52.67
48027;BME280;50714;49.208;5.364;2024-01-10T14:44:20;100242.47;;;0.91;52.63
48027;BME280;50714;49.208;5.364;2024-01-10T14:54:21;100253.69;;;0.84;52.90
48027;BME280;50714;49.208;5.364;2024-01-10T15:04:22;100242.94;;;0.85;53.42
48027;BME280;50714;49.208;5.364;2024-01-10T15:14:22;100249.59;;;0.91;53.22
48027;BME280;50714;49.208;5.364;2024-01-10T15:24:22;100262.63;;;0.83;53.34
48027;BME280;50714;49.208;5.364;2024-01-10T15:34:23;100256.34;;;0.84;53.23
48027;BME280;50714;49.208;5.364;2024-01-10T15:44:24;100270.59;;;0.72;53.24
48027;BME280;50714;49.208;5.364;2024-01-10T15:54:25;100265.19;;;0.62;54.06
48027;BME280;50714;49.208;5.364;2024-01-10T16:04:25;100275.78;;;0.51;53.96
48027;BME280;50714;49.208;5.364;2024-01-10T16:14:25;100276.41;;;0.43;54.75
48027;BME280;50714;49.208;5.364;2024-01-10T16:24:26;100273.88;;;0.42;54.70
48027;BME280;50714;49.208;5.364;2024-01-10T16:34:26;100287.50;;;0.48;54.97
48027;BME280;50714;49.208;5.364;2024-01-10T16:44:26;100288.84;;;0.43;54.76
48027;BME280;50714;49.208;5.364;2024-01-10T16:54:26;100293.41;;;0.29;54.27
48027;BME280;50714;49.208;5.364;2024-01-10T17:04:27;100300.44;;;0.42;54.81
48027;BME280;50714;49.208;5.364;2024-01-10T17:14:27;100302.97;;;0.43;54.92
48027;BME280;50714;49.208;5.364;2024-01-10T17:24:29;100320.22;;;0.38;55.18
48027;BME280;50714;49.208;5.364;2024-01-10T17:34:29;100319.13;;;0.40;54.89
48027;BME280;50714;49.208;5.364;2024-01-10T17:44:30;100316.56;;;0.27;55.51
48027;BME280;50714;49.208;5.364;2024-01-10T17:54:36;100331.88;;;0.24;55.43
48027;BME280;50714;49.208;5.364;2024-01-10T18:04:36;100340.94;;;0.21;55.57
48027;BME280;50714;49.208;5.364;2024-01-10T18:14:38;100344.19;;;0.14;55.66
48027;BME280;50714;49.208;5.364;2024-01-10T18:24:38;100339.22;;;0.09;55.33
48027;BME280;50714;49.208;5.364;2024-01-10T18:34:38;100361.84;;;0.02;56.02
48027;BME280;50714;49.208;5.364;2024-01-10T18:44:39;100375.84;;;0.04;55.91
48027;BME280;50714;49.208;5.364;2024-01-10T18:54:40;100383.69;;;0.06;55.96
48027;BME280;50714;49.208;5.364;2024-01-10T19:04:41;100385.16;;;0.10;55.60
48027;BME280;50714;49.208;5.364;2024-01-10T19:14:41;100401.22;;;0.08;55.64
48027;BME280;50714;49.208;5.364;2024-01-10T19:24:41;100404.19;;;0.04;55.78
48027;BME280;50714;49.208;5.364;2024-01-10T19:34:42;100415.41;;;-0.04;55.98
48027;BME280;50714;49.208;5.364;2024-01-10T19:44:45;100419.88;;;-0.05;56.01
48027;BME280;50714;49.208;5.364;2024-01-10T19:54:45;100437.59;;;-0.05;56.07
48027;BME280;50714;49.208;5.364;2024-01-10T20:04:47;100440.16;;;-0.16;56.19
48027;BME280;50714;49.208;5.364;2024-01-10T20:14:48;100440.75;;;-0.24;56.55
48027;BME280;50714;49.208;5.364;2024-01-10T20:24:50;100456.25;;;-0.30;56.36
48027;BME280;50714;49.208;5.364;2024-01-10T20:34:50;100452.84;;;-0.32;56.72
48027;BME280;50714;49.208;5.364;2024-01-10T20:44:51;100456.47;;;-0.33;56.68
48027;BME280;50714;49.208;5.364;2024-01-10T20:54:52;100460.19;;;-0.36;56.87
48027;BME280;50714;49.208;5.364;2024-01-10T21:04:52;100475.69;;;-0.43;56.80
48027;BME280;50714;49.208;5.364;2024-01-10T21:14:53;100476.13;;;-0.49;56.56
48027;BME280;50714;49.208;5.364;2024-01-10T21:24:56;100471.78;;;-0.50;57.37
48027;BME280;50714;49.208;5.364;2024-01-10T21:34:56;100475.28;;;-0.49;57.53
48027;BME280;50714;49.208;5.364;2024-01-10T21:44:57;100481.75;;;-0.53;56.84
48027;BME280;50714;49.208;5.364;2024-01-10T21:54:58;100477.31;;;-0.53;57.50
48027;BME280;50714;49.208;5.364;2024-01-10T22:04:58;100493.75;;;-0.60;57.86
48027;BME280;50714;49.208;5.364;2024-01-10T22:14:58;100484.31;;;-0.64;57.64
48027;BME280;50714;49.208;5.364;2024-01-10T22:24:59;100500.09;;;-0.63;57.80
48027;BME280;50714;49.208;5.364;2024-01-10T22:34:59;100496.63;;;-0.76;58.07
48027;BME280;50714;49.208;5.364;2024-01-10T22:44:59;100494.81;;;-0.76;58.04
48027;BME280;50714;49.208;5.364;2024-01-10T22:55:00;100507.44;;;-0.79;58.32
48027;BME280;50714;49.208;5.364;2024-01-10T23:05:01;100516.13;;;-0.90;59.06
48027;BME280;50714;49.208;5.364;2024-01-10T23:15:01;100519.50;;;-0.88;58.80
48027;BME280;50714;49.208;5.364;2024-01-10T23:25:01;100511.78;;;-0.91;59.00
48027;BME280;50714;49.208;5.364;2024-01-10T23:35:02;100509.31;;;-0.94;58.78
48027;BME280;50714;49.208;5.364;2024-01-10T23:45:02;100520.47;;;-0.89;58.79
48027;BME280;50714;49.208;5.364;2024-01-10T23:55:03;100511.66;;;-0.89;59.64
